createdAt,value
2018-07-14T19:26:42.914Z,3.43
2018-07-14T19:29:10.684Z,3.53
2018-07-14T19:31:38.591Z,4.03
2018-07-14T19:34:06.926Z,3.50
2018-07-14T19:36:35.190Z,3.17
2018-07-14T19:39:04.252Z,3.07
2018-07-14T19:41:32.544Z,3.57
2018-07-14T19:44:00.994Z,4.00
2018-07-14T19:46:29.136Z,3.70
2018-07-14T19:48:57.258Z,4.40
2018-07-14T19:51:25.058Z,3.80
2018-07-14T19:53:52.772Z,4.10
2018-07-14T19:56:21.548Z,3.60
2018-07-14T19:58:49.795Z,4.00
2018-07-14T20:01:17.696Z,3.77
2018-07-14T20:03:45.496Z,4.63
2018-07-14T20:06:13.348Z,3.90
2018-07-14T20:08:41.210Z,4.13
2018-07-14T20:11:09.561Z,3.70
2018-07-14T20:13:37.330Z,3.63
2018-07-14T20:16:05.404Z,4.00
2018-07-14T20:18:33.827Z,3.90
2018-07-14T20:21:01.745Z,3.50
2018-07-14T20:23:30.710Z,3.60
2018-07-14T20:25:58.494Z,4.20
2018-07-14T20:28:26.687Z,4.67
2018-07-14T20:30:54.469Z,3.77
2018-07-14T20:33:22.247Z,3.90
2018-07-14T20:35:50.195Z,4.00
2018-07-14T20:38:17.959Z,4.60
2018-07-14T20:40:45.730Z,3.73
2018-07-14T20:43:13.475Z,4.10
2018-07-14T20:45:41.334Z,3.67
2018-07-14T20:48:09.115Z,3.83
2018-07-14T20:50:37.183Z,3.77
2018-07-14T20:53:05.571Z,4.03
2018-07-14T20:55:33.682Z,3.97
2018-07-14T20:58:01.403Z,3.93
2018-07-14T21:00:29.142Z,4.00
2018-07-14T21:02:56.983Z,9.77
2018-07-14T21:05:24.810Z,8.80
2018-07-14T21:07:53.138Z,6.90
2018-07-14T21:10:21.642Z,5.27
2018-07-14T21:12:50.319Z,4.90
2018-07-14T21:15:18.543Z,3.87
2018-07-14T21:17:46.489Z,4.80
2018-07-14T21:20:14.364Z,4.33
2018-07-14T21:22:42.068Z,4.60
2018-07-14T21:25:09.879Z,4.87
2018-07-14T21:27:37.666Z,4.90
2018-07-14T21:30:05.592Z,4.30
2018-07-14T21:32:33.393Z,5.23
2018-07-14T21:35:01.223Z,5.40
2018-07-14T21:37:29.001Z,5.03
2018-07-14T21:39:56.749Z,4.60
2018-07-14T21:42:24.552Z,4.40
2018-07-14T21:44:52.351Z,4.80
2018-07-14T21:47:20.194Z,4.53
2018-07-14T21:49:47.978Z,4.37
2018-07-14T21:52:15.687Z,4.70
2018-07-14T21:54:43.446Z,5.10
2018-07-14T21:57:11.181Z,5.07
2018-07-14T21:59:38.956Z,4.87
2018-07-14T22:02:06.862Z,4.50
2018-07-14T22:04:35.271Z,4.40
2018-07-14T22:07:03.073Z,4.30
2018-07-14T22:09:30.970Z,5.00
2018-07-14T22:11:58.781Z,4.00
2018-07-14T22:14:26.623Z,5.00
2018-07-14T22:16:54.435Z,4.33
2018-07-14T22:19:22.243Z,4.90
2018-07-14T22:21:49.938Z,4.83
2018-07-14T22:24:17.697Z,4.33
2018-07-14T22:26:45.397Z,4.67
2018-07-14T22:29:13.150Z,4.20
2018-07-14T22:31:40.930Z,4.70
2018-07-14T22:34:08.788Z,3.70
2018-07-14T22:36:36.638Z,4.40
2018-07-14T22:39:05.943Z,4.60
2018-07-14T22:41:33.738Z,5.37
2018-07-14T22:44:01.566Z,5.23
2018-07-14T22:46:29.319Z,4.87
2018-07-14T22:48:57.062Z,4.80
2018-07-14T22:51:24.969Z,4.87
2018-07-14T22:53:52.775Z,4.63
2018-07-14T22:56:20.489Z,5.00
2018-07-14T22:58:48.498Z,5.30
2018-07-14T23:01:16.252Z,5.10
2018-07-14T23:03:43.980Z,4.83
2018-07-14T23:06:11.714Z,6.40
2018-07-14T23:08:39.454Z,5.00
2018-07-14T23:11:07.535Z,5.63
2018-07-14T23:13:35.319Z,5.33
2018-07-14T23:16:03.166Z,5.60
2018-07-14T23:18:30.787Z,5.37
2018-07-14T23:20:59.474Z,4.77
2018-07-14T23:23:27.224Z,5.80
2018-07-14T23:25:54.984Z,4.80
2018-07-14T23:28:22.754Z,4.60
2018-07-14T23:30:50.554Z,5.10
2018-07-14T23:33:18.355Z,4.77
2018-07-14T23:35:46.110Z,4.90
2018-07-14T23:38:13.811Z,5.07
2018-07-14T23:40:41.562Z,5.50
2018-07-14T23:43:09.295Z,5.53
2018-07-14T23:45:37.069Z,6.70
2018-07-14T23:48:04.872Z,6.23
2018-07-14T23:50:32.627Z,5.40
2018-07-14T23:53:00.407Z,5.90
2018-07-14T23:55:28.298Z,4.80
2018-07-14T23:57:56.101Z,5.07
